sensor_id;sensor_type;location;lat;lon;timestamp;P1;durP1;ratioP1;P2;durP2;ratioP2
71759;SDS011;59919;48.112;16.280;2023-01-15T00:00:45;4.25;;;2.88;;
71759;SDS011;59919;48.112;16.280;2023-01-15T00:03:19;4.68;;;2.70;;
71759;SDS011;59919;48.112;16.280;2023-01-15T00:05:53;4.30;;;2.47;;
71759;SDS011;59919;48.112;16.280;2023-01-15T00:08:24;3.10;;;2.58;;
71759;SDS011;59919;48.112;16.280;2023-01-15T00:10:55;4.43;;;2.90;;
71759;SDS011;59919;48.112;16.280;2023-01-15T00:13:33;4.35;;;2.90;;
71759;SDS011;59919;48.112;16.280;2023-01-15T00:16:07;3.63;;;2.42;;
71759;SDS011;59919;48.112;16.280;2023-01-15T00:18:50;3.03;;;2.60;;
71759;SDS011;59919;48.112;16.280;2023-01-15T00:21:23;3.17;;;2.72;;
71759;SDS011;59919;48.112;16.280;2023-01-15T00:23:55;5.07;;;2.90;;
71759;SDS011;59919;48.112;16.280;2023-01-15T00:26:45;2.95;;;2.25;;
71759;SDS011;59919;48.112;16.280;2023-01-15T00:29:37;3.92;;;2.70;;
71759;SDS011;59919;48.112;16.280;2023-01-15T00:32:10;4.78;;;2.78;;
71759;SDS011;59919;48.112;16.280;2023-01-15T00:34:44;3.80;;;2.88;;
71759;SDS011;59919;48.112;16.280;2023-01-15T00:37:15;4.00;;;2.97;;
71759;SDS011;59919;48.112;16.280;2023-01-15T00:39:46;4.00;;;3.00;;
71759;SDS011;59919;48.112;16.280;2023-01-15T00:42:22;3.88;;;3.00;;
71759;SDS011;59919;48.112;16.280;2023-01-15T00:44:55;3.95;;;2.95;;
71759;SDS011;59919;48.112;16.280;2023-01-15T00:47:26;4.82;;;3.28;;
71759;SDS011;59919;48.112;16.280;2023-01-15T00:49:58;2.85;;;2.55;;
71759;SDS011;59919;48.112;16.280;2023-01-15T00:52:33;4.72;;;3.40;;
71759;SDS011;59919;48.112;16.280;2023-01-15T00:55:05;4.05;;;2.90;;
71759;SDS011;59919;48.112;16.280;2023-01-15T00:57:37;4.63;;;2.95;;
71759;SDS011;59919;48.112;16.280;2023-01-15T01:00:08;3.88;;;2.78;;
71759;SDS011;59919;48.112;16.280;2023-01-15T01:02:42;4.22;;;3.00;;
71759;SDS011;59919;48.112;16.280;2023-01-15T01:05:16;3.80;;;2.85;;
71759;SDS011;59919;48.112;16.280;2023-01-15T01:07:47;4.95;;;3.05;;
71759;SDS011;59919;48.112;16.280;2023-01-15T01:10:18;3.60;;;3.03;;
71759;SDS011;59919;48.112;16.280;2023-01-15T01:12:55;5.15;;;3.08;;
71759;SDS011;59919;48.112;16.280;2023-01-15T01:15:29;4.00;;;3.20;;
71759;SDS011;59919;48.112;16.280;2023-01-15T01:18:02;5.55;;;3.20;;
71759;SDS011;59919;48.112;16.280;2023-01-15T01:20:34;4.88;;;3.30;;
71759;SDS011;59919;48.112;16.280;2023-01-15T01:23:13;4.20;;;2.63;;
71759;SDS011;59919;48.112;16.280;2023-01-15T01:25:47;5.25;;;2.88;;
71759;SDS011;59919;48.112;16.280;2023-01-15T01:28:19;4.18;;;2.92;;
71759;SDS011;59919;48.112;16.280;2023-01-15T01:30:52;3.55;;;2.80;;
71759;SDS011;59919;48.112;16.280;2023-01-15T01:33:26;3.78;;;3.10;;
71759;SDS011;59919;48.112;16.280;2023-01-15T01:36:03;4.10;;;3.20;;
71759;SDS011;59919;48.112;16.280;2023-01-15T01:38:40;3.97;;;3.00;;
71759;SDS011;59919;48.112;16.280;2023-01-15T01:41:16;4.03;;;3.00;;
71759;SDS011;59919;48.112;16.280;2023-01-15T01:47:06;4.88;;;3.30;;
71759;SDS011;59919;48.112;16.280;2023-01-15T01:49:39;5.07;;;3.30;;
71759;SDS011;59919;48.112;16.280;2023-01-15T01:52:18;4.68;;;3.20;;
71759;SDS011;59919;48.112;16.280;2023-01-15T01:54:53;5.72;;;3.13;;
71759;SDS011;59919;48.112;16.280;2023-01-15T01:57:30;3.15;;;2.78;;
71759;SDS011;59919;48.112;16.280;2023-01-15T02:00:07;4.55;;;3.35;;
71759;SDS011;59919;48.112;16.280;2023-01-15T02:02:42;4.55;;;3.00;;
71759;SDS011;59919;48.112;16.280;2023-01-15T02:05:20;4.70;;;3.20;;
71759;SDS011;59919;48.112;16.280;2023-01-15T02:07:57;4.40;;;3.08;;
71759;SDS011;59919;48.112;16.280;2023-01-15T02:10:29;4.07;;;2.75;;
71759;SDS011;59919;48.112;16.280;2023-01-15T02:15:46;4.50;;;3.03;;
71759;SDS011;59919;48.112;16.280;2023-01-15T02:18:36;5.28;;;3.38;;
71759;SDS011;59919;48.112;16.280;2023-01-15T02:21:50;3.87;;;2.90;;
71759;SDS011;59919;48.112;16.280;2023-01-15T02:24:32;3.20;;;2.78;;
71759;SDS011;59919;48.112;16.280;2023-01-15T02:27:18;4.43;;;3.30;;
71759;SDS011;59919;48.112;16.280;2023-01-15T02:30:05;4.45;;;3.40;;
71759;SDS011;59919;48.112;16.280;2023-01-15T02:32:55;6.32;;;3.50;;
71759;SDS011;59919;48.112;16.280;2023-01-15T02:35:33;6.28;;;3.20;;
71759;SDS011;59919;48.112;16.280;2023-01-15T02:40:52;3.50;;;2.58;;
71759;SDS011;59919;48.112;16.280;2023-01-15T02:43:32;4.82;;;2.80;;
71759;SDS011;59919;48.112;16.280;2023-01-15T02:46:06;4.15;;;3.08;;
71759;SDS011;59919;48.112;16.280;2023-01-15T02:48:54;4.43;;;3.25;;
71759;SDS011;59919;48.112;16.280;2023-01-15T02:51:28;5.05;;;3.13;;
71759;SDS011;59919;48.112;16.280;2023-01-15T02:54:08;3.65;;;2.75;;
71759;SDS011;59919;48.112;16.280;2023-01-15T02:56:44;4.80;;;2.92;;
71759;SDS011;59919;48.112;16.280;2023-01-15T02:59:21;4.45;;;3.25;;
71759;SDS011;59919;48.112;16.280;2023-01-15T03:02:08;4.20;;;3.28;;
71759;SDS011;59919;48.112;16.280;2023-01-15T03:07:23;5.28;;;3.33;;
71759;SDS011;59919;48.112;16.280;2023-01-15T03:10:01;3.83;;;2.78;;
71759;SDS011;59919;48.112;16.280;2023-01-15T03:12:45;3.95;;;3.00;;
71759;SDS011;59919;48.112;16.280;2023-01-15T03:18:40;3.90;;;2.70;;
71759;SDS011;59919;48.112;16.280;2023-01-15T03:21:20;3.88;;;2.80;;
71759;SDS011;59919;48.112;16.280;2023-01-15T03:23:58;5.20;;;3.08;;
71759;SDS011;59919;48.112;16.280;2023-01-15T03:26:36;3.65;;;2.85;;
71759;SDS011;59919;48.112;16.280;2023-01-15T03:29:12;4.97;;;3.10;;
71759;SDS011;59919;48.112;16.280;2023-01-15T03:31:43;3.90;;;3.13;;
71759;SDS011;59919;48.112;16.280;2023-01-15T03:34:15;4.07;;;3.10;;
71759;SDS011;59919;48.112;16.280;2023-01-15T03:36:49;3.75;;;2.63;;
71759;SDS011;59919;48.112;16.280;2023-01-15T03:39:23;5.10;;;3.30;;
71759;SDS011;59919;48.112;16.280;2023-01-15T03:45:09;3.90;;;2.78;;
71759;SDS011;59919;48.112;16.280;2023-01-15T03:48:02;4.63;;;3.20;;
71759;SDS011;59919;48.112;16.280;2023-01-15T03:53:21;4.78;;;3.10;;
71759;SDS011;59919;48.112;16.280;2023-01-15T03:56:13;4.97;;;2.95;;
71759;SDS011;59919;48.112;16.280;2023-01-15T03:58:51;5.53;;;3.58;;
71759;SDS011;59919;48.112;16.280;2023-01-15T04:01:36;4.40;;;3.50;;
71759;SDS011;59919;48.112;16.280;2023-01-15T04:04:11;4.15;;;3.08;;
71759;SDS011;59919;48.112;16.280;2023-01-15T04:06:43;4.32;;;3.08;;
71759;SDS011;59919;48.112;16.280;2023-01-15T04:09:21;3.75;;;2.78;;
71759;SDS011;59919;48.112;16.280;2023-01-15T04:12:01;4.45;;;3.03;;
71759;SDS011;59919;48.112;16.280;2023-01-15T04:14:35;3.45;;;2.88;;
71759;SDS011;59919;48.112;16.280;2023-01-15T04:17:08;3.63;;;2.95;;
71759;SDS011;59919;48.112;16.280;2023-01-15T04:19:41;4.13;;;2.70;;
71759;SDS011;59919;48.112;16.280;2023-01-15T04:22:18;3.28;;;2.42;;
71759;SDS011;59919;48.112;16.280;2023-01-15T04:24:52;3.08;;;2.67;;
71759;SDS011;59919;48.112;16.280;2023-01-15T04:27:26;3.50;;;2.75;;
71759;SDS011;59919;48.112;16.280;2023-01-15T04:30:00;4.03;;;3.10;;
71759;SDS011;59919;48.112;16.280;2023-01-15T04:32:35;3.17;;;2.88;;
71759;SDS011;59919;48.112;16.280;2023-01-15T04:35:11;3.08;;;2.50;;
71759;SDS011;59919;48.112;16.280;2023-01-15T04:37:45;4.13;;;2.90;;
71759;SDS011;59919;48.112;16.280;2023-01-15T04:40:16;3.65;;;2.90;;
71759;SDS011;59919;48.112;16.280;2023-01-15T04:43:07;3.75;;;2.70;;
71759;SDS011;59919;48.112;16.280;2023-01-15T04:46:00;6.00;;;3.30;;
71759;SDS011;59919;48.112;16.280;2023-01-15T04:48:32;4.28;;;2.70;;
71759;SDS011;59919;48.112;16.280;2023-01-15T04:51:04;3.35;;;2.70;;
71759;SDS011;59919;48.112;16.280;2023-01-15T04:53:40;4.78;;;2.85;;
71759;SDS011;59919;48.112;16.280;2023-01-15T04:56:11;4.18;;;3.20;;
71759;SDS011;59919;48.112;16.280;2023-01-15T04:58:44;3.65;;;2.70;;
71759;SDS011;59919;48.112;16.280;2023-01-15T05:01:21;3.45;;;2.72;;
71759;SDS011;59919;48.112;16.280;2023-01-15T05:03:54;4.60;;;2.85;;
71759;SDS011;59919;48.112;16.280;2023-01-15T05:06:28;4.10;;;3.03;;
71759;SDS011;59919;48.112;16.280;2023-01-15T05:09:03;4.22;;;3.00;;
71759;SDS011;59919;48.112;16.280;2023-01-15T05:11:40;3.92;;;2.60;;
71759;SDS011;59919;48.112;16.280;2023-01-15T05:14:12;3.63;;;2.88;;
71759;SDS011;59919;48.112;16.280;2023-01-15T05:16:44;2.80;;;2.45;;
71759;SDS011;59919;48.112;16.280;2023-01-15T05:19:20;3.85;;;2.88;;
71759;SDS011;59919;48.112;16.280;2023-01-15T05:21:54;3.65;;;2.70;;
71759;SDS011;59919;48.112;16.280;2023-01-15T05:24:31;3.93;;;2.93;;
71759;SDS011;59919;48.112;16.280;2023-01-15T05:27:04;3.95;;;2.55;;
71759;SDS011;59919;48.112;16.280;2023-01-15T05:29:40;4.05;;;2.55;;
71759;SDS011;59919;48.112;16.280;2023-01-15T05:32:17;3.97;;;2.92;;
71759;SDS011;59919;48.112;16.280;2023-01-15T05:34:48;3.80;;;3.05;;
71759;SDS011;59919;48.112;16.280;2023-01-15T05:37:21;4.00;;;3.00;;
71759;SDS011;59919;48.112;16.280;2023-01-15T05:39:55;3.42;;;2.58;;
71759;SDS011;59919;48.112;16.280;2023-01-15T05:42:31;3.78;;;2.75;;
71759;SDS011;59919;48.112;16.280;2023-01-15T05:45:02;3.22;;;2.50;;
71759;SDS011;59919;48.112;16.280;2023-01-15T05:47:36;3.88;;;2.80;;
71759;SDS011;59919;48.112;16.280;2023-01-15T05:50:10;3.58;;;2.45;;
71759;SDS011;59919;48.112;16.280;2023-01-15T05:52:47;2.80;;;2.35;;
71759;SDS011;59919;48.112;16.280;2023-01-15T05:55:19;3.13;;;2.50;;
71759;SDS011;59919;48.112;16.280;2023-01-15T05:57:50;3.95;;;2.80;;
71759;SDS011;59919;48.112;16.280;2023-01-15T06:00:21;3.30;;;2.88;;
71759;SDS011;59919;48.112;16.280;2023-01-15T06:02:52;3.78;;;3.03;;
71759;SDS011;59919;48.112;16.280;2023-01-15T06:05:23;3.22;;;2.60;;
71759;SDS011;59919;48.112;16.280;2023-01-15T06:07:59;3.63;;;2.65;;
71759;SDS011;59919;48.112;16.280;2023-01-15T06:10:32;3.38;;;2.70;;
71759;SDS011;59919;48.112;16.280;2023-01-15T06:13:06;3.70;;;2.80;;
71759;SDS011;59919;48.112;16.280;2023-01-15T06:15:37;3.08;;;2.40;;
71759;SDS011;59919;48.112;16.280;2023-01-15T06:18:11;3.17;;;2.60;;
71759;SDS011;59919;48.112;16.280;2023-01-15T06:20:45;3.28;;;2.47;;
71759;SDS011;59919;48.112;16.280;2023-01-15T06:23:19;2.85;;;2.53;;
71759;SDS011;59919;48.112;16.280;2023-01-15T06:25:52;4.32;;;2.90;;
71759;SDS011;59919;48.112;16.280;2023-01-15T06:28:23;3.53;;;2.60;;
71759;SDS011;59919;48.112;16.280;2023-01-15T06:30:57;3.28;;;2.10;;
71759;SDS011;59919;48.112;16.280;2023-01-15T06:33:31;3.28;;;2.60;;
71759;SDS011;59919;48.112;16.280;2023-01-15T06:39:09;3.67;;;2.53;;
71759;SDS011;59919;48.112;16.280;2023-01-15T06:41:40;4.00;;;2.65;;
71759;SDS011;59919;48.112;16.280;2023-01-15T06:44:30;2.95;;;2.30;;
71759;SDS011;59919;48.112;16.280;2023-01-15T06:47:20;2.80;;;2.13;;
71759;SDS011;59919;48.112;16.280;2023-01-15T06:49:55;3.95;;;2.70;;
71759;SDS011;59919;48.112;16.280;2023-01-15T06:52:29;3.50;;;2.50;;
71759;SDS011;59919;48.112;16.280;2023-01-15T06:55:00;3.10;;;2.50;;
71759;SDS011;59919;48.112;16.280;2023-01-15T06:57:36;2.72;;;2.40;;
71759;SDS011;59919;48.112;16.280;2023-01-15T07:00:10;3.65;;;2.53;;
71759;SDS011;59919;48.112;16.280;2023-01-15T07:02:45;2.97;;;2.45;;
71759;SDS011;59919;48.112;16.280;2023-01-15T07:05:22;3.08;;;2.53;;
71759;SDS011;59919;48.112;16.280;2023-01-15T07:07:55;3.05;;;2.42;;
71759;SDS011;59919;48.112;16.280;2023-01-15T07:10:32;2.95;;;2.45;;
71759;SDS011;59919;48.112;16.280;2023-01-15T07:13:04;3.97;;;2.70;;
71759;SDS011;59919;48.112;16.280;2023-01-15T07:15:37;3.78;;;2.45;;
71759;SDS011;59919;48.112;16.280;2023-01-15T07:18:09;3.03;;;2.13;;
71759;SDS011;59919;48.112;16.280;2023-01-15T07:20:40;3.70;;;2.40;;
71759;SDS011;59919;48.112;16.280;2023-01-15T07:23:11;2.90;;;2.20;;
71759;SDS011;59919;48.112;16.280;2023-01-15T07:25:42;3.53;;;2.35;;
71759;SDS011;59919;48.112;16.280;2023-01-15T07:28:13;3.78;;;2.38;;
71759;SDS011;59919;48.112;16.280;2023-01-15T07:30:44;3.28;;;2.28;;
71759;SDS011;59919;48.112;16.280;2023-01-15T07:33:18;3.00;;;1.98;;
71759;SDS011;59919;48.112;16.280;2023-01-15T07:35:52;2.78;;;2.22;;
71759;SDS011;59919;48.112;16.280;2023-01-15T07:38:23;2.75;;;2.10;;
71759;SDS011;59919;48.112;16.280;2023-01-15T07:40:55;4.22;;;2.38;;
71759;SDS011;59919;48.112;16.280;2023-01-15T07:43:47;3.33;;;2.47;;
71759;SDS011;59919;48.112;16.280;2023-01-15T07:46:39;3.58;;;2.00;;
71759;SDS011;59919;48.112;16.280;2023-01-15T07:49:31;3.67;;;2.20;;
71759;SDS011;59919;48.112;16.280;2023-01-15T07:52:23;2.17;;;1.92;;
71759;SDS011;59919;48.112;16.280;2023-01-15T07:54:54;2.78;;;2.20;;
71759;SDS011;59919;48.112;16.280;2023-01-15T07:57:25;3.08;;;2.20;;
71759;SDS011;59919;48.112;16.280;2023-01-15T07:59:59;2.88;;;2.13;;
71759;SDS011;59919;48.112;16.280;2023-01-15T08:02:30;2.63;;;2.05;;
71759;SDS011;59919;48.112;16.280;2023-01-15T08:05:01;3.05;;;2.38;;
71759;SDS011;59919;48.112;16.280;2023-01-15T08:07:38;3.35;;;2.22;;
71759;SDS011;59919;48.112;16.280;2023-01-15T08:10:13;2.40;;;1.85;;
71759;SDS011;59919;48.112;16.280;2023-01-15T08:12:44;2.88;;;2.13;;
71759;SDS011;59919;48.112;16.280;2023-01-15T08:15:34;2.30;;;1.95;;
71759;SDS011;59919;48.112;16.280;2023-01-15T08:18:13;4.10;;;2.40;;
71759;SDS011;59919;48.112;16.280;2023-01-15T08:20:50;3.03;;;2.25;;
71759;SDS011;59919;48.112;16.280;2023-01-15T08:23:27;2.80;;;2.03;;
71759;SDS011;59919;48.112;16.280;2023-01-15T08:25:58;3.15;;;2.00;;
71759;SDS011;59919;48.112;16.280;2023-01-15T08:28:30;2.67;;;2.10;;
71759;SDS011;59919;48.112;16.280;2023-01-15T08:31:06;2.38;;;1.95;;
71759;SDS011;59919;48.112;16.280;2023-01-15T08:33:38;2.95;;;2.15;;
71759;SDS011;59919;48.112;16.280;2023-01-15T08:36:09;3.85;;;2.20;;
71759;SDS011;59919;48.112;16.280;2023-01-15T08:38:42;3.17;;;2.30;;
71759;SDS011;59919;48.112;16.280;2023-01-15T08:41:18;3.15;;;2.00;;
71759;SDS011;59919;48.112;16.280;2023-01-15T08:43:50;2.67;;;2.05;;
71759;SDS011;59919;48.112;16.280;2023-01-15T08:46:21;3.08;;;2.30;;
71759;SDS011;59919;48.112;16.280;2023-01-15T08:48:55;2.47;;;1.83;;
71759;SDS011;59919;48.112;16.280;2023-01-15T08:51:26;3.25;;;2.17;;
71759;SDS011;59919;48.112;16.280;2023-01-15T08:54:00;2.83;;;2.47;;
71759;SDS011;59919;48.112;16.280;2023-01-15T08:56:39;2.58;;;1.90;;
71759;SDS011;59919;48.112;16.280;2023-01-15T08:59:10;3.10;;;2.38;;
71759;SDS011;59919;48.112;16.280;2023-01-15T09:01:43;2.30;;;2.05;;
71759;SDS011;59919;48.112;16.280;2023-01-15T09:04:19;2.58;;;1.92;;
71759;SDS011;59919;48.112;16.280;2023-01-15T09:09:25;4.03;;;2.33;;
71759;SDS011;59919;48.112;16.280;2023-01-15T09:11:56;8.77;;;2.20;;
71759;SDS011;59919;48.112;16.280;2023-01-15T09:14:28;4.22;;;2.08;;
71759;SDS011;59919;48.112;16.280;2023-01-15T09:17:01;3.80;;;2.15;;
71759;SDS011;59919;48.112;16.280;2023-01-15T09:19:34;3.22;;;2.00;;
71759;SDS011;59919;48.112;16.280;2023-01-15T09:22:05;5.28;;;2.40;;
71759;SDS011;59919;48.112;16.280;2023-01-15T09:24:37;3.90;;;2.05;;
71759;SDS011;59919;48.112;16.280;2023-01-15T09:27:11;4.82;;;2.28;;
71759;SDS011;59919;48.112;16.280;2023-01-15T09:29:43;4.88;;;2.40;;
71759;SDS011;59919;48.112;16.280;2023-01-15T09:32:14;2.97;;;2.10;;
71759;SDS011;59919;48.112;16.280;2023-01-15T09:34:50;4.85;;;1.98;;
71759;SDS011;59919;48.112;16.280;2023-01-15T09:37:24;2.95;;;1.98;;
71759;SDS011;59919;48.112;16.280;2023-01-15T09:39:58;4.07;;;2.30;;
71759;SDS011;59919;48.112;16.280;2023-01-15T09:46:22;3.25;;;2.15;;
71759;SDS011;59919;48.112;16.280;2023-01-15T09:57:03;4.70;;;2.10;;
71759;SDS011;59919;48.112;16.280;2023-01-15T09:59:42;3.38;;;2.13;;
71759;SDS011;59919;48.112;16.280;2023-01-15T10:05:01;4.03;;;2.50;;
71759;SDS011;59919;48.112;16.280;2023-01-15T10:08:37;3.13;;;2.13;;
71759;SDS011;59919;48.112;16.280;2023-01-15T10:16:37;4.30;;;2.08;;
71759;SDS011;59919;48.112;16.280;2023-01-15T10:19:11;3.00;;;2.33;;
71759;SDS011;59919;48.112;16.280;2023-01-15T10:24:24;3.28;;;2.30;;
71759;SDS011;59919;48.112;16.280;2023-01-15T10:27:22;2.90;;;2.22;;
71759;SDS011;59919;48.112;16.280;2023-01-15T10:30:00;2.97;;;2.25;;
71759;SDS011;59919;48.112;16.280;2023-01-15T10:43:37;3.47;;;2.15;;
71759;SDS011;59919;48.112;16.280;2023-01-15T10:46:14;3.35;;;2.25;;
71759;SDS011;59919;48.112;16.280;2023-01-15T10:48:52;2.55;;;2.10;;
71759;SDS011;59919;48.112;16.280;2023-01-15T10:51:32;3.00;;;2.20;;
71759;SDS011;59919;48.112;16.280;2023-01-15T10:54:19;3.83;;;2.45;;
71759;SDS011;59919;48.112;16.280;2023-01-15T11:02:25;3.45;;;2.17;;
71759;SDS011;59919;48.112;16.280;2023-01-15T11:05:00;2.42;;;2.15;;
71759;SDS011;59919;48.112;16.280;2023-01-15T11:10:16;2.97;;;2.15;;
71759;SDS011;59919;48.112;16.280;2023-01-15T11:13:11;2.78;;;2.03;;
71759;SDS011;59919;48.112;16.280;2023-01-15T11:16:15;3.80;;;2.28;;
71759;SDS011;59919;48.112;16.280;2023-01-15T11:19:28;2.70;;;2.30;;
71759;SDS011;59919;48.112;16.280;2023-01-15T11:22:16;2.45;;;2.10;;
71759;SDS011;59919;48.112;16.280;2023-01-15T11:24:50;3.80;;;2.33;;
71759;SDS011;59919;48.112;16.280;2023-01-15T11:27:27;3.55;;;2.10;;
71759;SDS011;59919;48.112;16.280;2023-01-15T11:30:03;3.75;;;2.28;;
71759;SDS011;59919;48.112;16.280;2023-01-15T11:32:54;2.35;;;1.80;;
71759;SDS011;59919;48.112;16.280;2023-01-15T11:35:27;4.72;;;2.00;;
71759;SDS011;59919;48.112;16.280;2023-01-15T11:38:11;2.75;;;2.10;;
71759;SDS011;59919;48.112;16.280;2023-01-15T11:40:53;2.83;;;2.00;;
71759;SDS011;59919;48.112;16.280;2023-01-15T11:43:31;6.25;;;1.98;;
71759;SDS011;59919;48.112;16.280;2023-01-15T11:49:20;4.13;;;2.17;;
71759;SDS011;59919;48.112;16.280;2023-01-15T11:52:19;2.92;;;2.08;;
71759;SDS011;59919;48.112;16.280;2023-01-15T11:54:58;3.13;;;2.10;;
71759;SDS011;59919;48.112;16.280;2023-01-15T11:57:32;2.70;;;2.08;;
71759;SDS011;59919;48.112;16.280;2023-01-15T12:00:06;2.72;;;1.90;;
71759;SDS011;59919;48.112;16.280;2023-01-15T12:03:17;4.07;;;2.00;;
71759;SDS011;59919;48.112;16.280;2023-01-15T12:06:00;3.33;;;1.77;;
71759;SDS011;59919;48.112;16.280;2023-01-15T12:11:49;2.83;;;1.90;;
71759;SDS011;59919;48.112;16.280;2023-01-15T12:14:43;2.97;;;2.10;;
71759;SDS011;59919;48.112;16.280;2023-01-15T12:23:32;4.82;;;2.10;;
71759;SDS011;59919;48.112;16.280;2023-01-15T12:31:47;3.33;;;1.90;;
71759;SDS011;59919;48.112;16.280;2023-01-15T12:37:05;2.92;;;1.90;;
71759;SDS011;59919;48.112;16.280;2023-01-15T12:40:14;2.67;;;2.05;;
71759;SDS011;59919;48.112;16.280;2023-01-15T12:42:48;2.85;;;2.20;;
71759;SDS011;59919;48.112;16.280;2023-01-15T12:45:43;3.30;;;1.70;;
71759;SDS011;59919;48.112;16.280;2023-01-15T12:51:34;3.47;;;2.13;;
71759;SDS011;59919;48.112;16.280;2023-01-15T12:54:27;3.15;;;1.80;;
71759;SDS011;59919;48.112;16.280;2023-01-15T12:57:08;3.33;;;2.00;;
71759;SDS011;59919;48.112;16.280;2023-01-15T12:59:59;2.53;;;2.00;;
71759;SDS011;59919;48.112;16.280;2023-01-15T13:02:53;2.88;;;1.80;;
71759;SDS011;59919;48.112;16.280;2023-01-15T13:05:33;4.68;;;2.00;;
71759;SDS011;59919;48.112;16.280;2023-01-15T13:10:54;2.65;;;1.80;;
71759;SDS011;59919;48.112;16.280;2023-01-15T13:13:32;3.55;;;2.42;;
71759;SDS011;59919;48.112;16.280;2023-01-15T13:22:04;3.85;;;2.15;;
71759;SDS011;59919;48.112;16.280;2023-01-15T13:31:11;2.17;;;1.98;;
71759;SDS011;59919;48.112;16.280;2023-01-15T13:33:36;3.38;;;2.30;;
71759;SDS011;59919;48.112;16.280;2023-01-15T13:36:27;4.90;;;2.27;;
71759;SDS011;59919;48.112;16.280;2023-01-15T13:39:02;3.28;;;2.30;;
71759;SDS011;59919;48.112;16.280;2023-01-15T13:41:37;3.85;;;2.50;;
71759;SDS011;59919;48.112;16.280;2023-01-15T13:44:33;3.03;;;2.28;;
71759;SDS011;59919;48.112;16.280;2023-01-15T13:47:18;3.97;;;2.47;;
71759;SDS011;59919;48.112;16.280;2023-01-15T13:49:56;3.95;;;2.35;;
71759;SDS011;59919;48.112;16.280;2023-01-15T13:52:34;4.43;;;2.70;;
71759;SDS011;59919;48.112;16.280;2023-01-15T13:57:50;3.85;;;2.30;;
71759;SDS011;59919;48.112;16.280;2023-01-15T14:06:00;3.35;;;2.15;;
71759;SDS011;59919;48.112;16.280;2023-01-15T14:08:40;3.05;;;2.30;;
71759;SDS011;59919;48.112;16.280;2023-01-15T14:16:51;2.38;;;1.90;;
71759;SDS011;59919;48.112;16.280;2023-01-15T14:31:10;6.28;;;2.60;;
71759;SDS011;59919;48.112;16.280;2023-01-15T14:36:45;3.75;;;2.30;;
71759;SDS011;59919;48.112;16.280;2023-01-15T14:48:10;3.67;;;2.45;;
71759;SDS011;59919;48.112;16.280;2023-01-15T14:54:00;3.08;;;2.10;;
71759;SDS011;59919;48.112;16.280;2023-01-15T14:56:43;3.83;;;2.20;;
71759;SDS011;59919;48.112;16.280;2023-01-15T14:59:25;2.72;;;2.33;;
71759;SDS011;59919;48.112;16.280;2023-01-15T15:02:28;2.63;;;2.00;;
71759;SDS011;59919;48.112;16.280;2023-01-15T15:05:01;2.35;;;2.00;;
71759;SDS011;59919;48.112;16.280;2023-01-15T15:07:34;4.72;;;2.63;;
71759;SDS011;59919;48.112;16.280;2023-01-15T15:18:52;2.42;;;1.92;;
71759;SDS011;59919;48.112;16.280;2023-01-15T15:21:36;3.30;;;2.30;;
71759;SDS011;59919;48.112;16.280;2023-01-15T15:26:48;4.10;;;2.60;;
71759;SDS011;59919;48.112;16.280;2023-01-15T15:29:19;3.58;;;2.78;;
71759;SDS011;59919;48.112;16.280;2023-01-15T15:31:52;3.25;;;2.42;;
71759;SDS011;59919;48.112;16.280;2023-01-15T15:34:33;3.15;;;2.28;;
71759;SDS011;59919;48.112;16.280;2023-01-15T15:37:12;3.83;;;2.47;;
71759;SDS011;59919;48.112;16.280;2023-01-15T15:42:37;3.10;;;2.05;;
71759;SDS011;59919;48.112;16.280;2023-01-15T15:45:31;2.63;;;2.42;;
71759;SDS011;59919;48.112;16.280;2023-01-15T15:48:27;4.28;;;2.40;;
71759;SDS011;59919;48.112;16.280;2023-01-15T15:54:13;3.65;;;2.35;;
71759;SDS011;59919;48.112;16.280;2023-01-15T15:56:56;3.22;;;2.10;;
71759;SDS011;59919;48.112;16.280;2023-01-15T15:59:32;3.25;;;2.08;;
71759;SDS011;59919;48.112;16.280;2023-01-15T16:02:27;2.08;;;1.75;;
71759;SDS011;59919;48.112;16.280;2023-01-15T16:07:48;3.03;;;2.13;;
71759;SDS011;59919;48.112;16.280;2023-01-15T16:10:33;3.15;;;2.22;;
71759;SDS011;59919;48.112;16.280;2023-01-15T16:13:05;2.88;;;2.05;;
71759;SDS011;59919;48.112;16.280;2023-01-15T16:15:44;2.85;;;2.05;;
71759;SDS011;59919;48.112;16.280;2023-01-15T16:18:21;2.53;;;1.90;;
71759;SDS011;59919;48.112;16.280;2023-01-15T16:20:57;2.45;;;1.90;;
71759;SDS011;59919;48.112;16.280;2023-01-15T16:23:29;2.53;;;1.90;;
71759;SDS011;59919;48.112;16.280;2023-01-15T16:28:40;2.97;;;2.15;;
71759;SDS011;59919;48.112;16.280;2023-01-15T16:31:16;2.83;;;1.88;;
71759;SDS011;59919;48.112;16.280;2023-01-15T16:33:52;2.42;;;1.73;;
71759;SDS011;59919;48.112;16.280;2023-01-15T16:36:40;2.47;;;1.90;;
71759;SDS011;59919;48.112;16.280;2023-01-15T16:42:00;3.65;;;1.92;;
71759;SDS011;59919;48.112;16.280;2023-01-15T16:44:48;3.95;;;1.90;;
71759;SDS011;59919;48.112;16.280;2023-01-15T16:50:22;2.00;;;1.70;;
71759;SDS011;59919;48.112;16.280;2023-01-15T16:52:57;2.53;;;1.52;;
71759;SDS011;59919;48.112;16.280;2023-01-15T16:55:38;2.10;;;1.60;;
71759;SDS011;59919;48.112;16.280;2023-01-15T16:58:14;2.40;;;1.30;;
71759;SDS011;59919;48.112;16.280;2023-01-15T17:00:48;1.83;;;1.38;;
71759;SDS011;59919;48.112;16.280;2023-01-15T17:03:23;2.28;;;1.70;;
71759;SDS011;59919;48.112;16.280;2023-01-15T17:05:59;3.22;;;1.40;;
71759;SDS011;59919;48.112;16.280;2023-01-15T17:08:47;1.50;;;1.33;;
71759;SDS011;59919;48.112;16.280;2023-01-15T17:11:23;2.78;;;1.42;;
71759;SDS011;59919;48.112;16.280;2023-01-15T17:14:06;1.90;;;1.35;;
71759;SDS011;59919;48.112;16.280;2023-01-15T17:19:59;2.38;;;1.50;;
71759;SDS011;59919;48.112;16.280;2023-01-15T17:22:30;1.55;;;1.33;;
71759;SDS011;59919;48.112;16.280;2023-01-15T17:25:19;2.15;;;1.30;;
71759;SDS011;59919;48.112;16.280;2023-01-15T17:27:51;1.77;;;1.20;;
71759;SDS011;59919;48.112;16.280;2023-01-15T17:30:29;2.15;;;1.35;;
71759;SDS011;59919;48.112;16.280;2023-01-15T17:33:02;1.73;;;1.33;;
71759;SDS011;59919;48.112;16.280;2023-01-15T17:35:35;2.67;;;1.25;;
71759;SDS011;59919;48.112;16.280;2023-01-15T17:38:08;1.42;;;1.13;;
71759;SDS011;59919;48.112;16.280;2023-01-15T17:40:41;1.77;;;1.23;;
71759;SDS011;59919;48.112;16.280;2023-01-15T17:43:13;1.58;;;1.30;;
71759;SDS011;59919;48.112;16.280;2023-01-15T17:45:52;1.90;;;1.10;;
71759;SDS011;59919;48.112;16.280;2023-01-15T17:48:23;1.85;;;1.20;;
71759;SDS011;59919;48.112;16.280;2023-01-15T17:50:54;1.70;;;1.30;;
71759;SDS011;59919;48.112;16.280;2023-01-15T17:53:25;1.92;;;1.30;;
71759;SDS011;59919;48.112;16.280;2023-01-15T17:55:59;1.95;;;1.38;;
71759;SDS011;59919;48.112;16.280;2023-01-15T17:58:49;1.35;;;1.25;;
71759;SDS011;59919;48.112;16.280;2023-01-15T18:01:40;0.98;;;0.85;;
71759;SDS011;59919;48.112;16.280;2023-01-15T18:04:36;1.95;;;1.25;;
71759;SDS011;59919;48.112;16.280;2023-01-15T18:07:36;4.70;;;1.20;;
71759;SDS011;59919;48.112;16.280;2023-01-15T18:10:12;1.77;;;1.20;;
71759;SDS011;59919;48.112;16.280;2023-01-15T18:12:51;1.58;;;1.08;;
71759;SDS011;59919;48.112;16.280;2023-01-15T18:15:24;1.42;;;1.15;;
71759;SDS011;59919;48.112;16.280;2023-01-15T18:17:55;2.03;;;1.20;;
71759;SDS011;59919;48.112;16.280;2023-01-15T18:20:29;1.10;;;0.90;;
71759;SDS011;59919;48.112;16.280;2023-01-15T18:23:01;1.17;;;0.98;;
71759;SDS011;59919;48.112;16.280;2023-01-15T18:25:34;1.30;;;0.90;;
71759;SDS011;59919;48.112;16.280;2023-01-15T18:28:05;1.20;;;1.10;;
71759;SDS011;59919;48.112;16.280;2023-01-15T18:30:39;1.88;;;1.10;;
71759;SDS011;59919;48.112;16.280;2023-01-15T18:33:10;1.23;;;1.10;;